sensor_id;sensor_type;location;lat;lon;timestamp;P1;durP1;ratioP1;P2;durP2;ratioP2
22449;SDS011;11392;57.390;-2.468;2023-02-01T00:01:19;5.18;;;1.85;;
22449;SDS011;11392;57.390;-2.468;2023-02-01T00:03:46;4.93;;;1.40;;
22449;SDS011;11392;57.390;-2.468;2023-02-01T00:06:13;5.18;;;1.58;;
22449;SDS011;11392;57.390;-2.468;2023-02-01T00:08:40;5.43;;;1.25;;
22449;SDS011;11392;57.390;-2.468;2023-02-01T00:11:08;5.28;;;1.75;;
22449;SDS011;11392;57.390;-2.468;2023-02-01T00:13:37;2.65;;;1.40;;
22449;SDS011;11392;57.390;-2.468;2023-02-01T00:18:50;6.35;;;1.58;;
22449;SDS011;11392;57.390;-2.468;2023-02-01T00:21:21;3.22;;;1.45;;
22449;SDS011;11392;57.390;-2.468;2023-02-01T00:23:48;5.75;;;1.20;;
22449;SDS011;11392;57.390;-2.468;2023-02-01T00:26:16;3.45;;;1.02;;
22449;SDS011;11392;57.390;-2.468;2023-02-01T00:28:56;3.28;;;1.27;;
22449;SDS011;11392;57.390;-2.468;2023-02-01T00:31:23;4.63;;;1.52;;
22449;SDS011;11392;57.390;-2.468;2023-02-01T00:33:54;4.45;;;1.67;;
22449;SDS011;11392;57.390;-2.468;2023-02-01T00:36:21;2.72;;;0.93;;
22449;SDS011;11392;57.390;-2.468;2023-02-01T00:38:48;3.40;;;1.13;;
22449;SDS011;11392;57.390;-2.468;2023-02-01T00:41:19;4.90;;;1.40;;
22449;SDS011;11392;57.390;-2.468;2023-02-01T00:43:47;2.75;;;1.10;;
22449;SDS011;11392;57.390;-2.468;2023-02-01T00:46:15;3.95;;;1.20;;
22449;SDS011;11392;57.390;-2.468;2023-02-01T00:48:43;5.57;;;1.40;;
22449;SDS011;11392;57.390;-2.468;2023-02-01T00:51:11;4.43;;;1.17;;
22449;SDS011;11392;57.390;-2.468;2023-02-01T00:53:40;5.82;;;1.48;;
22449;SDS011;11392;57.390;-2.468;2023-02-01T00:56:07;5.68;;;1.60;;
22449;SDS011;11392;57.390;-2.468;2023-02-01T00:58:35;6.10;;;1.35;;
22449;SDS011;11392;57.390;-2.468;2023-02-01T01:01:03;4.88;;;1.30;;
22449;SDS011;11392;57.390;-2.468;2023-02-01T01:03:31;5.78;;;1.60;;
22449;SDS011;11392;57.390;-2.468;2023-02-01T01:06:02;8.70;;;2.63;;
22449;SDS011;11392;57.390;-2.468;2023-02-01T01:08:31;4.40;;;1.20;;
22449;SDS011;11392;57.390;-2.468;2023-02-01T01:11:03;3.90;;;1.38;;
22449;SDS011;11392;57.390;-2.468;2023-02-01T01:13:33;3.15;;;1.48;;
22449;SDS011;11392;57.390;-2.468;2023-02-01T01:16:01;4.32;;;1.33;;
22449;SDS011;11392;57.390;-2.468;2023-02-01T01:18:30;3.70;;;1.10;;
22449;SDS011;11392;57.390;-2.468;2023-02-01T01:20:58;4.45;;;1.08;;
22449;SDS011;11392;57.390;-2.468;2023-02-01T01:23:25;1.45;;;1.08;;
22449;SDS011;11392;57.390;-2.468;2023-02-01T01:25:53;2.05;;;1.00;;
22449;SDS011;11392;57.390;-2.468;2023-02-01T01:28:20;4.78;;;1.25;;
22449;SDS011;11392;57.390;-2.468;2023-02-01T01:30:47;3.53;;;0.98;;
22449;SDS011;11392;57.390;-2.468;2023-02-01T01:33:14;3.60;;;1.17;;
22449;SDS011;11392;57.390;-2.468;2023-02-01T01:35:41;3.33;;;1.15;;
22449;SDS011;11392;57.390;-2.468;2023-02-01T01:38:09;3.92;;;1.40;;
22449;SDS011;11392;57.390;-2.468;2023-02-01T01:40:37;3.92;;;1.35;;
22449;SDS011;11392;57.390;-2.468;2023-02-01T01:43:14;3.30;;;1.13;;
22449;SDS011;11392;57.390;-2.468;2023-02-01T01:45:42;2.75;;;1.10;;
22449;SDS011;11392;57.390;-2.468;2023-02-01T01:48:12;3.00;;;1.17;;
22449;SDS011;11392;57.390;-2.468;2023-02-01T01:51:20;3.00;;;1.08;;
22449;SDS011;11392;57.390;-2.468;2023-02-01T01:53:45;4.15;;;1.20;;
22449;SDS011;11392;57.390;-2.468;2023-02-01T01:56:39;6.88;;;1.30;;
22449;SDS011;11392;57.390;-2.468;2023-02-01T01:59:08;2.70;;;1.02;;
22449;SDS011;11392;57.390;-2.468;2023-02-01T02:01:35;3.28;;;1.15;;
22449;SDS011;11392;57.390;-2.468;2023-02-01T02:04:03;5.07;;;1.27;;
22449;SDS011;11392;57.390;-2.468;2023-02-01T02:09:14;3.17;;;1.92;;
22449;SDS011;11392;57.390;-2.468;2023-02-01T02:11:42;4.55;;;0.90;;
22449;SDS011;11392;57.390;-2.468;2023-02-01T02:14:11;3.58;;;1.00;;
22449;SDS011;11392;57.390;-2.468;2023-02-01T02:16:43;2.15;;;0.73;;
22449;SDS011;11392;57.390;-2.468;2023-02-01T02:19:22;1.08;;;0.70;;
22449;SDS011;11392;57.390;-2.468;2023-02-01T02:50:28;1.33;;;0.40;;
22449;SDS011;11392;57.390;-2.468;2023-02-01T02:53:39;2.60;;;0.60;;
22449;SDS011;11392;57.390;-2.468;2023-02-01T02:56:29;3.33;;;0.85;;
22449;SDS011;11392;57.390;-2.468;2023-02-01T02:59:15;3.47;;;1.00;;
22449;SDS011;11392;57.390;-2.468;2023-02-01T03:02:04;1.25;;;0.80;;
22449;SDS011;11392;57.390;-2.468;2023-02-01T03:04:54;5.38;;;1.10;;
22449;SDS011;11392;57.390;-2.468;2023-02-01T03:10:11;4.53;;;1.10;;
22449;SDS011;11392;57.390;-2.468;2023-02-01T03:12:50;7.28;;;1.38;;
22449;SDS011;11392;57.390;-2.468;2023-02-01T03:15:39;5.05;;;1.15;;
22449;SDS011;11392;57.390;-2.468;2023-02-01T03:18:24;5.45;;;1.42;;
22449;SDS011;11392;57.390;-2.468;2023-02-01T03:21:09;6.63;;;1.23;;
22449;SDS011;11392;57.390;-2.468;2023-02-01T03:23:40;4.38;;;1.55;;
22449;SDS011;11392;57.390;-2.468;2023-02-01T03:26:10;5.70;;;1.42;;
22449;SDS011;11392;57.390;-2.468;2023-02-01T03:28:42;3.38;;;1.17;;
22449;SDS011;11392;57.390;-2.468;2023-02-01T03:31:19;7.38;;;1.50;;
22449;SDS011;11392;57.390;-2.468;2023-02-01T03:33:46;4.70;;;1.40;;
22449;SDS011;11392;57.390;-2.468;2023-02-01T03:36:15;2.88;;;1.05;;
22449;SDS011;11392;57.390;-2.468;2023-02-01T03:39:11;2.15;;;0.70;;
22449;SDS011;11392;57.390;-2.468;2023-02-01T03:47:12;0.98;;;0.40;;
22449;SDS011;11392;57.390;-2.468;2023-02-01T03:49:49;1.70;;;0.50;;
22449;SDS011;11392;57.390;-2.468;2023-02-01T03:53:16;0.40;;;0.40;;
22449;SDS011;11392;57.390;-2.468;2023-02-01T03:55:37;0.82;;;0.40;;
22449;SDS011;11392;57.390;-2.468;2023-02-01T04:00:39;0.20;;;0.20;;
22449;SDS011;11392;57.390;-2.468;2023-02-01T04:03:10;2.15;;;0.68;;
22449;SDS011;11392;57.390;-2.468;2023-02-01T04:05:37;0.43;;;0.40;;
22449;SDS011;11392;57.390;-2.468;2023-02-01T04:08:04;3.42;;;1.48;;
22449;SDS011;11392;57.390;-2.468;2023-02-01T04:10:31;7.07;;;1.00;;
22449;SDS011;11392;57.390;-2.468;2023-02-01T04:12:58;5.63;;;1.60;;
22449;SDS011;11392;57.390;-2.468;2023-02-01T04:15:25;7.22;;;1.50;;
22449;SDS011;11392;57.390;-2.468;2023-02-01T04:17:52;6.80;;;2.40;;
22449;SDS011;11392;57.390;-2.468;2023-02-01T04:20:19;5.78;;;1.83;;
22449;SDS011;11392;57.390;-2.468;2023-02-01T04:22:46;6.85;;;1.70;;
22449;SDS011;11392;57.390;-2.468;2023-02-01T04:25:13;3.95;;;1.20;;
22449;SDS011;11392;57.390;-2.468;2023-02-01T04:27:40;8.43;;;2.10;;
22449;SDS011;11392;57.390;-2.468;2023-02-01T04:30:07;4.80;;;1.50;;
22449;SDS011;11392;57.390;-2.468;2023-02-01T04:32:36;8.38;;;1.75;;
22449;SDS011;11392;57.390;-2.468;2023-02-01T04:35:04;7.30;;;1.60;;
22449;SDS011;11392;57.390;-2.468;2023-02-01T04:37:32;6.07;;;1.73;;
22449;SDS011;11392;57.390;-2.468;2023-02-01T04:39:59;5.50;;;1.75;;
22449;SDS011;11392;57.390;-2.468;2023-02-01T04:42:26;6.43;;;2.20;;
22449;SDS011;11392;57.390;-2.468;2023-02-01T04:44:53;4.95;;;1.33;;
22449;SDS011;11392;57.390;-2.468;2023-02-01T04:47:20;5.97;;;2.30;;
22449;SDS011;11392;57.390;-2.468;2023-02-01T04:49:47;7.35;;;2.30;;
22449;SDS011;11392;57.390;-2.468;2023-02-01T04:52:14;5.43;;;2.15;;
22449;SDS011;11392;57.390;-2.468;2023-02-01T04:54:41;3.45;;;1.65;;
22449;SDS011;11392;57.390;-2.468;2023-02-01T04:57:08;8.05;;;2.00;;
22449;SDS011;11392;57.390;-2.468;2023-02-01T04:59:35;6.38;;;1.92;;
22449;SDS011;11392;57.390;-2.468;2023-02-01T05:02:02;7.03;;;1.60;;
22449;SDS011;11392;57.390;-2.468;2023-02-01T05:04:29;8.65;;;1.77;;
22449;SDS011;11392;57.390;-2.468;2023-02-01T05:06:56;7.75;;;1.92;;
22449;SDS011;11392;57.390;-2.468;2023-02-01T05:09:23;7.68;;;2.33;;
22449;SDS011;11392;57.390;-2.468;2023-02-01T05:11:50;10.55;;;2.05;;
22449;SDS011;11392;57.390;-2.468;2023-02-01T05:14:36;8.18;;;1.83;;
22449;SDS011;11392;57.390;-2.468;2023-02-01T05:17:03;6.40;;;1.67;;
22449;SDS011;11392;57.390;-2.468;2023-02-01T05:19:29;7.47;;;1.77;;
22449;SDS011;11392;57.390;-2.468;2023-02-01T05:21:56;5.20;;;2.88;;
22449;SDS011;11392;57.390;-2.468;2023-02-01T05:24:23;8.98;;;2.13;;
22449;SDS011;11392;57.390;-2.468;2023-02-01T05:26:50;10.60;;;2.08;;
22449;SDS011;11392;57.390;-2.468;2023-02-01T05:29:18;6.57;;;2.05;;
22449;SDS011;11392;57.390;-2.468;2023-02-01T05:31:45;7.95;;;2.20;;
22449;SDS011;11392;57.390;-2.468;2023-02-01T05:34:12;5.70;;;1.58;;
22449;SDS011;11392;57.390;-2.468;2023-02-01T05:36:40;5.47;;;1.80;;
22449;SDS011;11392;57.390;-2.468;2023-02-01T05:39:07;8.27;;;2.10;;
22449;SDS011;11392;57.390;-2.468;2023-02-01T05:41:34;7.38;;;2.35;;
22449;SDS011;11392;57.390;-2.468;2023-02-01T05:44:02;8.55;;;1.80;;
22449;SDS011;11392;57.390;-2.468;2023-02-01T05:46:30;5.20;;;1.70;;
22449;SDS011;11392;57.390;-2.468;2023-02-01T05:48:57;9.02;;;2.20;;
22449;SDS011;11392;57.390;-2.468;2023-02-01T05:51:24;5.63;;;2.15;;
22449;SDS011;11392;57.390;-2.468;2023-02-01T05:53:51;7.95;;;2.58;;
22449;SDS011;11392;57.390;-2.468;2023-02-01T05:56:18;10.50;;;2.60;;
22449;SDS011;11392;57.390;-2.468;2023-02-01T05:58:45;14.43;;;2.58;;
22449;SDS011;11392;57.390;-2.468;2023-02-01T06:01:12;7.63;;;2.42;;
22449;SDS011;11392;57.390;-2.468;2023-02-01T06:03:39;9.27;;;2.40;;
22449;SDS011;11392;57.390;-2.468;2023-02-01T06:06:06;8.48;;;2.20;;
22449;SDS011;11392;57.390;-2.468;2023-02-01T06:08:33;8.35;;;2.78;;
22449;SDS011;11392;57.390;-2.468;2023-02-01T06:11:00;9.80;;;2.40;;
22449;SDS011;11392;57.390;-2.468;2023-02-01T06:13:29;10.05;;;2.65;;
22449;SDS011;11392;57.390;-2.468;2023-02-01T06:15:59;9.45;;;2.22;;
22449;SDS011;11392;57.390;-2.468;2023-02-01T06:18:27;10.00;;;2.80;;
22449;SDS011;11392;57.390;-2.468;2023-02-01T06:20:56;12.07;;;3.70;;
22449;SDS011;11392;57.390;-2.468;2023-02-01T06:23:25;12.60;;;2.80;;
22449;SDS011;11392;57.390;-2.468;2023-02-01T06:25:57;11.35;;;2.28;;
22449;SDS011;11392;57.390;-2.468;2023-02-01T06:28:32;10.68;;;2.63;;
22449;SDS011;11392;57.390;-2.468;2023-02-01T06:31:04;10.57;;;3.00;;
22449;SDS011;11392;57.390;-2.468;2023-02-01T06:33:33;8.05;;;2.58;;
22449;SDS011;11392;57.390;-2.468;2023-02-01T06:36:02;10.77;;;2.38;;
22449;SDS011;11392;57.390;-2.468;2023-02-01T06:38:30;9.57;;;3.00;;
22449;SDS011;11392;57.390;-2.468;2023-02-01T06:40:58;10.10;;;2.47;;
22449;SDS011;11392;57.390;-2.468;2023-02-01T06:43:25;13.15;;;3.63;;
22449;SDS011;11392;57.390;-2.468;2023-02-01T06:45:53;9.50;;;3.25;;
22449;SDS011;11392;57.390;-2.468;2023-02-01T06:48:25;16.23;;;3.55;;
22449;SDS011;11392;57.390;-2.468;2023-02-01T06:50:52;12.95;;;3.08;;
22449;SDS011;11392;57.390;-2.468;2023-02-01T06:53:20;8.13;;;2.25;;
22449;SDS011;11392;57.390;-2.468;2023-02-01T06:55:57;12.23;;;3.65;;
22449;SDS011;11392;57.390;-2.468;2023-02-01T06:58:32;9.38;;;3.22;;
22449;SDS011;11392;57.390;-2.468;2023-02-01T07:01:06;10.15;;;3.03;;
22449;SDS011;11392;57.390;-2.468;2023-02-01T07:03:35;13.10;;;3.17;;
22449;SDS011;11392;57.390;-2.468;2023-02-01T07:06:02;11.80;;;2.75;;
22449;SDS011;11392;57.390;-2.468;2023-02-01T07:08:31;13.77;;;3.70;;
22449;SDS011;11392;57.390;-2.468;2023-02-01T07:11:01;10.38;;;2.75;;
22449;SDS011;11392;57.390;-2.468;2023-02-01T07:13:33;9.93;;;2.58;;
22449;SDS011;11392;57.390;-2.468;2023-02-01T07:16:02;12.57;;;3.33;;
22449;SDS011;11392;57.390;-2.468;2023-02-01T07:18:31;9.25;;;2.97;;
22449;SDS011;11392;57.390;-2.468;2023-02-01T07:20:59;10.55;;;2.80;;
22449;SDS011;11392;57.390;-2.468;2023-02-01T07:23:26;8.00;;;2.47;;
22449;SDS011;11392;57.390;-2.468;2023-02-01T07:25:58;12.05;;;2.70;;
22449;SDS011;11392;57.390;-2.468;2023-02-01T07:28:28;11.02;;;2.60;;
22449;SDS011;11392;57.390;-2.468;2023-02-01T07:31:07;8.75;;;2.63;;
22449;SDS011;11392;57.390;-2.468;2023-02-01T07:33:36;7.10;;;2.45;;
22449;SDS011;11392;57.390;-2.468;2023-02-01T07:36:04;10.55;;;4.03;;
22449;SDS011;11392;57.390;-2.468;2023-02-01T07:38:32;25.05;;;3.60;;
22449;SDS011;11392;57.390;-2.468;2023-02-01T07:41:03;12.73;;;2.55;;
22449;SDS011;11392;57.390;-2.468;2023-02-01T07:43:32;8.45;;;2.78;;
22449;SDS011;11392;57.390;-2.468;2023-02-01T07:45:59;9.77;;;2.22;;
22449;SDS011;11392;57.390;-2.468;2023-02-01T07:48:28;12.60;;;2.70;;
22449;SDS011;11392;57.390;-2.468;2023-02-01T07:53:28;11.30;;;2.85;;
22449;SDS011;11392;57.390;-2.468;2023-02-01T07:55:56;11.38;;;2.40;;
22449;SDS011;11392;57.390;-2.468;2023-02-01T07:58:24;9.32;;;2.58;;
22449;SDS011;11392;57.390;-2.468;2023-02-01T08:00:52;10.45;;;2.95;;
22449;SDS011;11392;57.390;-2.468;2023-02-01T08:03:38;10.07;;;1.92;;
22449;SDS011;11392;57.390;-2.468;2023-02-01T08:06:05;9.18;;;2.10;;
22449;SDS011;11392;57.390;-2.468;2023-02-01T08:08:33;7.53;;;1.98;;
22449;SDS011;11392;57.390;-2.468;2023-02-01T08:11:01;10.48;;;2.45;;
22449;SDS011;11392;57.390;-2.468;2023-02-01T08:13:30;7.60;;;1.75;;
22449;SDS011;11392;57.390;-2.468;2023-02-01T08:15:58;7.75;;;2.38;;
22449;SDS011;11392;57.390;-2.468;2023-02-01T08:18:25;9.15;;;2.83;;
22449;SDS011;11392;57.390;-2.468;2023-02-01T08:20:53;9.05;;;2.35;;
22449;SDS011;11392;57.390;-2.468;2023-02-01T08:23:21;8.27;;;2.70;;
22449;SDS011;11392;57.390;-2.468;2023-02-01T08:25:49;11.40;;;2.17;;
22449;SDS011;11392;57.390;-2.468;2023-02-01T08:28:16;7.75;;;2.72;;
22449;SDS011;11392;57.390;-2.468;2023-02-01T08:30:45;8.88;;;2.00;;
22449;SDS011;11392;57.390;-2.468;2023-02-01T08:33:13;5.03;;;1.90;;
22449;SDS011;11392;57.390;-2.468;2023-02-01T08:35:41;8.00;;;2.42;;
22449;SDS011;11392;57.390;-2.468;2023-02-01T08:38:09;11.88;;;2.55;;
22449;SDS011;11392;57.390;-2.468;2023-02-01T08:40:39;8.90;;;2.47;;
22449;SDS011;11392;57.390;-2.468;2023-02-01T08:43:08;10.82;;;2.85;;
22449;SDS011;11392;57.390;-2.468;2023-02-01T08:45:35;10.43;;;2.25;;
22449;SDS011;11392;57.390;-2.468;2023-02-01T08:48:02;8.27;;;3.47;;
22449;SDS011;11392;57.390;-2.468;2023-02-01T08:50:29;7.45;;;2.00;;
22449;SDS011;11392;57.390;-2.468;2023-02-01T08:52:56;8.95;;;2.45;;
22449;SDS011;11392;57.390;-2.468;2023-02-01T08:55:24;6.22;;;2.03;;
22449;SDS011;11392;57.390;-2.468;2023-02-01T08:57:51;9.07;;;2.75;;
22449;SDS011;11392;57.390;-2.468;2023-02-01T09:00:18;6.22;;;2.25;;
22449;SDS011;11392;57.390;-2.468;2023-02-01T09:02:45;7.18;;;1.98;;
22449;SDS011;11392;57.390;-2.468;2023-02-01T09:05:13;6.80;;;2.40;;
22449;SDS011;11392;57.390;-2.468;2023-02-01T09:07:42;7.35;;;1.90;;
22449;SDS011;11392;57.390;-2.468;2023-02-01T09:10:10;7.70;;;1.48;;
22449;SDS011;11392;57.390;-2.468;2023-02-01T09:12:37;8.80;;;2.00;;
22449;SDS011;11392;57.390;-2.468;2023-02-01T09:15:05;8.55;;;2.20;;
22449;SDS011;11392;57.390;-2.468;2023-02-01T09:17:33;8.90;;;2.78;;
22449;SDS011;11392;57.390;-2.468;2023-02-01T09:20:01;7.32;;;2.03;;
22449;SDS011;11392;57.390;-2.468;2023-02-01T09:22:29;9.35;;;2.45;;
22449;SDS011;11392;57.390;-2.468;2023-02-01T09:24:56;4.28;;;1.67;;
22449;SDS011;11392;57.390;-2.468;2023-02-01T09:27:23;7.60;;;2.15;;
22449;SDS011;11392;57.390;-2.468;2023-02-01T09:29:51;10.20;;;2.83;;
22449;SDS011;11392;57.390;-2.468;2023-02-01T09:32:22;7.97;;;2.45;;
22449;SDS011;11392;57.390;-2.468;2023-02-01T09:34:50;8.23;;;2.78;;
22449;SDS011;11392;57.390;-2.468;2023-02-01T09:37:18;10.45;;;2.22;;
22449;SDS011;11392;57.390;-2.468;2023-02-01T09:39:45;9.82;;;2.72;;
22449;SDS011;11392;57.390;-2.468;2023-02-01T09:47:55;10.18;;;2.28;;
22449;SDS011;11392;57.390;-2.468;2023-02-01T09:50:35;10.75;;;2.22;;
22449;SDS011;11392;57.390;-2.468;2023-02-01T09:53:20;8.57;;;2.80;;
22449;SDS011;11392;57.390;-2.468;2023-02-01T09:56:02;8.13;;;2.78;;
22449;SDS011;11392;57.390;-2.468;2023-02-01T09:58:37;12.65;;;2.85;;
22449;SDS011;11392;57.390;-2.468;2023-02-01T10:01:19;18.02;;;3.83;;
22449;SDS011;11392;57.390;-2.468;2023-02-01T10:03:57;6.95;;;1.95;;
22449;SDS011;11392;57.390;-2.468;2023-02-01T10:12:36;7.57;;;2.22;;
22449;SDS011;11392;57.390;-2.468;2023-02-01T10:15:15;8.18;;;2.30;;
22449;SDS011;11392;57.390;-2.468;2023-02-01T10:20:39;7.55;;;2.03;;
22449;SDS011;11392;57.390;-2.468;2023-02-01T10:26:12;12.02;;;2.92;;
22449;SDS011;11392;57.390;-2.468;2023-02-01T10:28:53;6.75;;;2.15;;
22449;SDS011;11392;57.390;-2.468;2023-02-01T10:31:25;9.43;;;2.20;;
22449;SDS011;11392;57.390;-2.468;2023-02-01T10:33:56;8.18;;;2.42;;
22449;SDS011;11392;57.390;-2.468;2023-02-01T10:36:28;11.82;;;2.70;;
22449;SDS011;11392;57.390;-2.468;2023-02-01T10:39:02;7.85;;;2.15;;
22449;SDS011;11392;57.390;-2.468;2023-02-01T10:41:31;8.18;;;2.72;;
22449;SDS011;11392;57.390;-2.468;2023-02-01T10:44:04;9.05;;;2.17;;
22449;SDS011;11392;57.390;-2.468;2023-02-01T10:46:36;8.35;;;3.15;;
22449;SDS011;11392;57.390;-2.468;2023-02-01T10:49:04;7.85;;;2.05;;
22449;SDS011;11392;57.390;-2.468;2023-02-01T10:51:45;8.80;;;2.20;;
22449;SDS011;11392;57.390;-2.468;2023-02-01T10:54:32;8.30;;;2.10;;
22449;SDS011;11392;57.390;-2.468;2023-02-01T10:57:00;7.82;;;2.45;;
22449;SDS011;11392;57.390;-2.468;2023-02-01T10:59:28;7.25;;;1.70;;
22449;SDS011;11392;57.390;-2.468;2023-02-01T11:01:59;7.70;;;2.83;;
22449;SDS011;11392;57.390;-2.468;2023-02-01T11:04:29;6.00;;;1.90;;
22449;SDS011;11392;57.390;-2.468;2023-02-01T11:07:12;4.30;;;1.48;;
22449;SDS011;11392;57.390;-2.468;2023-02-01T11:09:51;4.85;;;1.58;;
22449;SDS011;11392;57.390;-2.468;2023-02-01T11:12:28;8.50;;;1.33;;
22449;SDS011;11392;57.390;-2.468;2023-02-01T11:15:20;6.07;;;1.58;;
22449;SDS011;11392;57.390;-2.468;2023-02-01T11:17:48;3.20;;;1.20;;
22449;SDS011;11392;57.390;-2.468;2023-02-01T11:22:58;5.55;;;1.73;;
22449;SDS011;11392;57.390;-2.468;2023-02-01T11:25:25;3.00;;;1.35;;
22449;SDS011;11392;57.390;-2.468;2023-02-01T11:27:53;6.40;;;1.88;;
22449;SDS011;11392;57.390;-2.468;2023-02-01T11:30:33;4.10;;;1.60;;
22449;SDS011;11392;57.390;-2.468;2023-02-01T11:33:03;5.28;;;1.50;;
22449;SDS011;11392;57.390;-2.468;2023-02-01T11:35:32;6.72;;;1.80;;
22449;SDS011;11392;57.390;-2.468;2023-02-01T11:38:13;4.15;;;1.42;;
22449;SDS011;11392;57.390;-2.468;2023-02-01T11:40:47;5.15;;;1.73;;
22449;SDS011;11392;57.390;-2.468;2023-02-01T11:43:24;6.80;;;2.03;;
22449;SDS011;11392;57.390;-2.468;2023-02-01T11:45:57;6.15;;;1.75;;
22449;SDS011;11392;57.390;-2.468;2023-02-01T11:48:27;5.15;;;1.70;;
22449;SDS011;11392;57.390;-2.468;2023-02-01T11:51:21;5.28;;;1.73;;
22449;SDS011;11392;57.390;-2.468;2023-02-01T12:28:25;7.90;;;1.85;;
22449;SDS011;11392;57.390;-2.468;2023-02-01T12:41:40;9.45;;;2.17;;
22449;SDS011;11392;57.390;-2.468;2023-02-01T12:44:27;4.28;;;1.50;;
22449;SDS011;11392;57.390;-2.468;2023-02-01T12:47:24;5.80;;;1.50;;
22449;SDS011;11392;57.390;-2.468;2023-02-01T12:52:32;4.53;;;2.03;;
22449;SDS011;11392;57.390;-2.468;2023-02-01T12:55:07;6.55;;;2.20;;
22449;SDS011;11392;57.390;-2.468;2023-02-01T12:58:16;9.45;;;2.08;;
22449;SDS011;11392;57.390;-2.468;2023-02-01T13:00:51;8.90;;;2.20;;
22449;SDS011;11392;57.390;-2.468;2023-02-01T13:06:04;7.32;;;2.72;;
22449;SDS011;11392;57.390;-2.468;2023-02-01T13:08:43;6.90;;;2.00;;
22449;SDS011;11392;57.390;-2.468;2023-02-01T13:11:15;6.28;;;1.92;;
22449;SDS011;11392;57.390;-2.468;2023-02-01T13:13:55;12.65;;;3.17;;
22449;SDS011;11392;57.390;-2.468;2023-02-01T13:16:34;6.53;;;2.10;;
22449;SDS011;11392;57.390;-2.468;2023-02-01T13:21:58;7.90;;;2.17;;
22449;SDS011;11392;57.390;-2.468;2023-02-01T13:24:37;8.75;;;2.00;;
22449;SDS011;11392;57.390;-2.468;2023-02-01T13:27:13;7.82;;;1.88;;
22449;SDS011;11392;57.390;-2.468;2023-02-01T13:29:45;8.35;;;1.90;;
22449;SDS011;11392;57.390;-2.468;2023-02-01T13:32:44;5.22;;;1.58;;
22449;SDS011;11392;57.390;-2.468;2023-02-01T13:42:05;7.80;;;1.95;;
22449;SDS011;11392;57.390;-2.468;2023-02-01T13:44:50;7.05;;;1.95;;
22449;SDS011;11392;57.390;-2.468;2023-02-01T13:47:31;7.00;;;1.95;;
22449;SDS011;11392;57.390;-2.468;2023-02-01T13:52:57;5.55;;;1.77;;
22449;SDS011;11392;57.390;-2.468;2023-02-01T13:55:28;5.72;;;1.75;;
22449;SDS011;11392;57.390;-2.468;2023-02-01T13:58:02;5.68;;;1.60;;
22449;SDS011;11392;57.390;-2.468;2023-02-01T14:00:33;4.80;;;1.65;;
22449;SDS011;11392;57.390;-2.468;2023-02-01T14:21:27;6.68;;;1.70;;
22449;SDS011;11392;57.390;-2.468;2023-02-01T14:23:58;5.57;;;1.88;;
22449;SDS011;11392;57.390;-2.468;2023-02-01T14:26:44;6.63;;;2.40;;
22449;SDS011;11392;57.390;-2.468;2023-02-01T14:29:39;7.47;;;1.70;;
22449;SDS011;11392;57.390;-2.468;2023-02-01T14:32:16;4.88;;;2.15;;
22449;SDS011;11392;57.390;-2.468;2023-02-01T14:44:53;7.82;;;1.80;;
22449;SDS011;11392;57.390;-2.468;2023-02-01T14:47:41;8.10;;;2.58;;
22449;SDS011;11392;57.390;-2.468;2023-02-01T14:58:40;4.65;;;1.90;;
22449;SDS011;11392;57.390;-2.468;2023-02-01T15:01:30;10.23;;;2.33;;
22449;SDS011;11392;57.390;-2.468;2023-02-01T15:04:08;5.47;;;1.48;;
22449;SDS011;11392;57.390;-2.468;2023-02-01T15:06:38;6.82;;;2.00;;
22449;SDS011;11392;57.390;-2.468;2023-02-01T15:11:55;8.02;;;2.00;;
22449;SDS011;11392;57.390;-2.468;2023-02-01T15:14:23;6.93;;;2.00;;
22449;SDS011;11392;57.390;-2.468;2023-02-01T15:16:51;7.18;;;1.77;;
22449;SDS011;11392;57.390;-2.468;2023-02-01T15:19:21;6.78;;;2.42;;
22449;SDS011;11392;57.390;-2.468;2023-02-01T15:21:52;4.95;;;1.70;;
22449;SDS011;11392;57.390;-2.468;2023-02-01T15:26:50;5.43;;;1.90;;
22449;SDS011;11392;57.390;-2.468;2023-02-01T15:29:19;6.18;;;2.10;;
22449;SDS011;11392;57.390;-2.468;2023-02-01T15:31:49;12.35;;;2.60;;
22449;SDS011;11392;57.390;-2.468;2023-02-01T15:34:18;8.60;;;2.20;;
22449;SDS011;11392;57.390;-2.468;2023-02-01T15:36:46;6.35;;;2.05;;
22449;SDS011;11392;57.390;-2.468;2023-02-01T15:39:28;7.10;;;1.90;;
22449;SDS011;11392;57.390;-2.468;2023-02-01T15:41:59;8.60;;;1.92;;
22449;SDS011;11392;57.390;-2.468;2023-02-01T15:44:39;9.23;;;2.33;;
22449;SDS011;11392;57.390;-2.468;2023-02-01T15:47:29;6.30;;;2.33;;
22449;SDS011;11392;57.390;-2.468;2023-02-01T15:49:57;5.70;;;2.00;;
22449;SDS011;11392;57.390;-2.468;2023-02-01T15:52:31;9.63;;;2.15;;
22449;SDS011;11392;57.390;-2.468;2023-02-01T15:55:07;7.68;;;2.42;;
22449;SDS011;11392;57.390;-2.468;2023-02-01T15:57:45;9.23;;;2.00;;
22449;SDS011;11392;57.390;-2.468;2023-02-01T16:02:55;5.07;;;1.55;;
22449;SDS011;11392;57.390;-2.468;2023-02-01T16:05:34;7.90;;;2.08;;
22449;SDS011;11392;57.390;-2.468;2023-02-01T16:08:06;9.82;;;2.35;;
22449;SDS011;11392;57.390;-2.468;2023-02-01T16:10:42;9.27;;;1.63;;
22449;SDS011;11392;57.390;-2.468;2023-02-01T16:13:12;7.38;;;2.00;;
22449;SDS011;11392;57.390;-2.468;2023-02-01T16:15:40;8.40;;;2.40;;
22449;SDS011;11392;57.390;-2.468;2023-02-01T16:18:08;12.45;;;2.20;;
22449;SDS011;11392;57.390;-2.468;2023-02-01T16:20:36;7.68;;;2.03;;
22449;SDS011;11392;57.390;-2.468;2023-02-01T16:23:05;9.35;;;2.80;;
22449;SDS011;11392;57.390;-2.468;2023-02-01T16:25:35;10.18;;;2.78;;
22449;SDS011;11392;57.390;-2.468;2023-02-01T16:28:03;6.28;;;2.10;;
22449;SDS011;11392;57.390;-2.468;2023-02-01T16:30:31;7.00;;;2.08;;
22449;SDS011;11392;57.390;-2.468;2023-02-01T16:33:00;12.52;;;3.08;;
22449;SDS011;11392;57.390;-2.468;2023-02-01T16:35:34;7.22;;;2.28;;
22449;SDS011;11392;57.390;-2.468;2023-02-01T16:38:04;6.55;;;1.95;;
22449;SDS011;11392;57.390;-2.468;2023-02-01T16:40:39;5.85;;;1.73;;
22449;SDS011;11392;57.390;-2.468;2023-02-01T16:45:41;5.75;;;2.25;;
22449;SDS011;11392;57.390;-2.468;2023-02-01T16:48:11;9.63;;;2.22;;
22449;SDS011;11392;57.390;-2.468;2023-02-01T16:50:50;9.23;;;3.38;;
22449;SDS011;11392;57.390;-2.468;2023-02-01T16:53:20;10.85;;;3.60;;
22449;SDS011;11392;57.390;-2.468;2023-02-01T16:55:48;9.60;;;3.28;;
22449;SDS011;11392;57.390;-2.468;2023-02-01T16:58:16;11.00;;;3.47;;
22449;SDS011;11392;57.390;-2.468;2023-02-01T17:00:44;8.35;;;3.45;;
22449;SDS011;11392;57.390;-2.468;2023-02-01T17:03:11;11.15;;;3.90;;
22449;SDS011;11392;57.390;-2.468;2023-02-01T17:05:46;6.50;;;2.95;;
22449;SDS011;11392;57.390;-2.468;2023-02-01T17:08:17;7.13;;;2.55;;
22449;SDS011;11392;57.390;-2.468;2023-02-01T17:10:53;9.95;;;2.55;;
22449;SDS011;11392;57.390;-2.468;2023-02-01T17:13:20;12.32;;;2.60;;
22449;SDS011;11392;57.390;-2.468;2023-02-01T17:18:25;8.73;;;1.75;;
22449;SDS011;11392;57.390;-2.468;2023-02-01T17:20:59;5.35;;;1.70;;
22449;SDS011;11392;57.390;-2.468;2023-02-01T17:23:28;6.10;;;1.60;;
22449;SDS011;11392;57.390;-2.468;2023-02-01T17:25:56;9.43;;;2.17;;
22449;SDS011;11392;57.390;-2.468;2023-02-01T17:28:24;5.38;;;1.75;;
22449;SDS011;11392;57.390;-2.468;2023-02-01T17:31:00;2.45;;;1.23;;
22449;SDS011;11392;57.390;-2.468;2023-02-01T17:33:35;5.75;;;2.00;;
22449;SDS011;11392;57.390;-2.468;2023-02-01T17:36:03;6.40;;;2.75;;
22449;SDS011;11392;57.390;-2.468;2023-02-01T17:38:32;4.55;;;1.90;;
22449;SDS011;11392;57.390;-2.468;2023-02-01T17:41:03;4.30;;;1.60;;
22449;SDS011;11392;57.390;-2.468;2023-02-01T17:43:30;11.48;;;2.90;;
22449;SDS011;11392;57.390;-2.468;2023-02-01T17:45:57;6.45;;;1.77;;
22449;SDS011;11392;57.390;-2.468;2023-02-01T17:48:31;10.95;;;2.22;;
22449;SDS011;11392;57.390;-2.468;2023-02-01T17:50:58;6.78;;;1.80;;
22449;SDS011;11392;57.390;-2.468;2023-02-01T17:53:27;6.07;;;1.75;;
22449;SDS011;11392;57.390;-2.468;2023-02-01T17:55:55;4.70;;;1.30;;
22449;SDS011;11392;57.390;-2.468;2023-02-01T17:58:25;5.65;;;1.83;;
22449;SDS011;11392;57.390;-2.468;2023-02-01T18:00:52;6.50;;;1.63;;